Time;durP1;ratioP1;P1;durP2;ratioP2;P2;SDS_P1;SDS_P2;PMS_P1;PMS_P2;Temp;Humidity;BMP_temperature;BMP_pressure;BME280_temperature;BME280_humidity;BME280_pressure;Samples;Min_cycle;Max_cycle;Signal;HPM_P1;HPM_P2
2023/02/24 00:01:07;;;;;;;10.90;3.07;;;6.80;99.90;;;;;;5025184;28;21060;-84
2023/02/24 00:03:36;;;;;;;9.27;3.23;;;6.90;99.90;;;;;;5030967;28;20459;-86
2023/02/24 00:06:08;;;;;;;8.13;2.83;;;6.70;99.90;;;;;;5043972;28;20467;-85
2023/02/24 00:08:36;;;;;;;10.27;3.27;;;6.80;99.90;;;;;;5028141;28;20977;-84
2023/02/24 00:11:08;;;;;;;12.03;3.43;;;6.80;99.90;;;;;;5023284;28;20483;-85
2023/02/24 00:13:35;;;;;;;12.97;4.90;;;6.80;99.90;;;;;;5024826;28;20457;-85
2023/02/24 00:16:04;;;;;;;15.43;4.10;;;6.90;99.90;;;;;;5024478;28;20496;-85
2023/02/24 00:18:32;;;;;;;12.33;4.70;;;6.90;99.90;;;;;;5025473;28;20489;-86
2023/02/24 00:21:07;;;;;;;10.87;4.10;;;6.70;89.40;;;;;;5043115;28;20465;-84
2023/02/24 00:23:36;;;;;;;16.60;4.40;;;6.80;99.90;;;;;;5028323;28;20459;-85
2023/02/24 00:26:05;;;;;;;10.20;4.10;;;6.80;99.90;;;;;;5026655;28;20483;-85
2023/02/24 00:28:32;;;;;;;11.23;4.93;;;6.80;98.90;;;;;;5027701;28;20462;-84
2023/02/24 00:31:03;;;;;;;16.20;5.13;;;6.80;99.90;;;;;;5032697;28;20528;-85
2023/02/24 00:33:30;;;;;;;11.63;4.70;;;6.90;91.20;;;;;;5023238;28;20464;-85
2023/02/24 00:36:05;;;;;;;15.77;5.90;;;6.70;75.90;;;;;;5028820;28;20613;-84
2023/02/24 00:38:34;;;;;;;8.10;5.13;;;6.70;93.20;;;;;;5039259;28;20455;-85
2023/02/24 00:41:08;;;;;;;16.63;5.37;;;6.70;97.70;;;;;;5021747;28;20544;-86
2023/02/24 00:43:36;;;;;;;14.23;5.60;;;6.60;99.70;;;;;;5028727;28;20449;-84
2023/02/24 00:46:09;;;;;;;13.67;6.27;;;6.50;99.90;;;;;;5030513;28;20471;-85
2023/02/24 00:48:39;;;;;;;11.53;5.10;;;6.50;99.90;;;;;;5040660;28;20868;-86
2023/02/24 00:51:06;;;;;;;16.07;5.93;;;6.40;99.90;;;;;;5028989;28;20457;-84
2023/02/24 00:53:33;;;;;;;15.93;5.70;;;6.30;99.90;;;;;;5029413;28;20490;-84
2023/02/24 00:56:01;;;;;;;17.43;5.90;;;6.30;99.90;;;;;;5035288;28;20590;-84
2023/02/24 00:58:30;;;;;;;15.53;4.90;;;6.20;99.90;;;;;;5036468;28;20462;-85
2023/02/24 01:00:58;;;;;;;13.53;5.30;;;6.30;99.90;;;;;;5037229;28;20908;-85
2023/02/24 01:03:26;;;;;;;15.97;6.13;;;6.20;99.90;;;;;;5037040;28;20456;-85
2023/02/24 01:05:53;;;;;;;11.73;4.47;;;6.20;99.90;;;;;;5034585;28;20463;-85
2023/02/24 01:08:21;;;;;;;9.70;5.00;;;6.20;99.90;;;;;;5025346;28;20516;-85
2023/02/24 01:12:00;;;;;;;12.90;4.50;;;6.20;99.90;;;;;;5021447;28;20452;-85
2023/02/24 01:13:43;;;;;;;18.40;4.23;;;6.20;99.90;;;;;;5021913;28;20459;-84
2023/02/24 01:16:13;;;;;;;17.07;4.90;;;6.20;99.90;;;;;;5033020;28;20578;-85
2023/02/24 01:18:40;;;;;;;18.43;3.80;;;6.30;99.90;;;;;;5034958;28;20463;-86
2023/02/24 01:21:07;;;;;;;12.30;5.10;;;6.30;99.90;;;;;;5023538;28;21264;-83
2023/02/24 01:23:34;;;;;;;16.60;3.47;;;6.40;99.90;;;;;;5029176;28;20455;-86
2023/02/24 01:26:03;;;;;;;14.23;3.07;;;6.30;99.90;;;;;;5020957;28;20498;-85
2023/02/24 01:28:30;;;;;;;20.20;5.03;;;6.30;99.90;;;;;;5021664;28;20463;-85
2023/02/24 01:31:03;;;;;;;14.10;3.63;;;6.20;99.90;;;;;;5022327;28;20462;-86
2023/02/24 01:33:32;;;;;;;7.40;2.93;;;6.30;99.90;;;;;;5027816;28;20490;-85
2023/02/24 01:36:09;;;;;;;12.60;2.93;;;6.30;99.90;;;;;;5036077;28;20493;-85
2023/02/24 01:38:37;;;;;;;12.90;3.67;;;6.40;99.90;;;;;;5021566;28;20518;-83
2023/02/24 01:41:05;;;;;;;12.77;3.80;;;6.40;99.60;;;;;;5021210;28;20461;-85
2023/02/24 01:43:33;;;;;;;19.93;3.70;;;6.40;94.60;;;;;;5034121;28;20456;-84
2023/02/24 01:46:00;;;;;;;32.40;4.77;;;6.40;99.90;;;;;;5024466;28;20553;-85
2023/02/24 01:48:29;;;;;;;14.40;4.63;;;6.30;99.90;;;;;;5021574;28;20550;-84
2023/02/24 01:50:57;;;;;;;20.27;3.90;;;6.30;95.90;;;;;;5019633;28;20468;-84
2023/02/24 01:53:24;;;;;;;10.77;3.97;;;6.40;71.80;;;;;;5037266;28;20978;-84
2023/02/24 01:55:51;;;;;;;13.47;3.53;;;6.40;66.00;;;;;;5028888;28;20579;-85
2023/02/24 01:58:23;;;;;;;17.30;4.10;;;6.20;53.70;;;;;;5037489;28;20464;-84
2023/02/24 02:00:51;;;;;;;19.57;4.70;;;6.10;57.80;;;;;;5040603;28;20547;-83
2023/02/24 02:03:26;;;;;;;12.80;3.97;;;6.00;71.10;;;;;;5036326;28;20530;-84
2023/02/24 02:05:59;;;;;;;17.73;3.60;;;6.10;78.40;;;;;;5041140;28;20463;-84
2023/02/24 02:08:28;;;;;;;11.30;2.90;;;6.20;61.20;;;;;;5034674;28;20468;-85
2023/02/24 02:10:58;;;;;;;10.60;3.50;;;6.20;51.20;;;;;;5033652;28;20458;-85
2023/02/24 02:13:27;;;;;;;10.97;3.20;;;6.00;34.20;;;;;;5038568;28;20890;-86
2023/02/24 02:16:07;;;;;;;10.10;2.70;;;6.00;52.30;;;;;;5040302;28;21075;-85
2023/02/24 02:18:45;;;;;;;13.43;3.10;;;6.00;50.70;;;;;;5021148;28;21204;-85
2023/02/24 02:22:02;;;;;;;13.20;3.80;;;5.90;43.80;;;;;;5021685;28;20456;-84
2023/02/24 02:24:50;;;;;;;14.00;2.60;;;5.80;49.20;;;;;;5030413;28;20818;-84
2023/02/24 02:27:46;;;;;;;18.03;4.97;;;5.70;47.40;;;;;;5024471;28;20818;-84
2023/02/24 02:30:55;;;;;;;13.00;3.67;;;5.70;53.50;;;;;;5041046;28;20963;-84
2023/02/24 02:34:00;;;;;;;7.37;2.17;;;5.70;37.50;;;;;;5014178;28;20865;-84
2023/02/24 02:36:33;;;;;;;8.73;2.17;;;5.60;41.20;;;;;;5042702;28;20594;-84
2023/02/24 02:39:10;;;;;;;14.20;5.40;;;5.60;44.00;;;;;;5040002;28;20455;-84
2023/02/24 02:41:50;;;;;;;11.23;3.23;;;5.50;30.40;;;;;;5035401;28;20459;-83
2023/02/24 02:44:23;;;;;;;12.63;2.77;;;5.50;45.50;;;;;;5040737;28;20449;-83
2023/02/24 02:46:58;;;;;;;7.83;2.57;;;5.40;63.40;;;;;;5023854;28;20562;-83
2023/02/24 02:49:31;;;;;;;11.47;2.87;;;5.50;55.40;;;;;;5035416;28;20541;-85
2023/02/24 02:52:04;;;;;;;13.57;2.70;;;5.50;52.90;;;;;;5040519;28;20459;-83
2023/02/24 02:54:44;;;;;;;5.27;2.17;;;5.40;51.80;;;;;;5029339;28;20461;-83
2023/02/24 02:57:16;;;;;;;15.27;3.10;;;5.40;45.60;;;;;;5043041;28;20575;-85
2023/02/24 02:59:49;;;;;;;9.30;2.90;;;5.40;30.00;;;;;;5042936;28;20449;-84
2023/02/24 03:02:19;;;;;;;19.53;5.83;;;5.30;48.70;;;;;;5031911;28;20455;-85
2023/02/24 03:04:51;;;;;;;13.10;3.60;;;5.20;74.00;;;;;;5028442;28;20994;-83
2023/02/24 03:07:19;;;;;;;12.00;2.93;;;5.10;91.40;;;;;;5025371;28;20472;-83
2023/02/24 03:09:51;;;;;;;17.53;2.80;;;5.10;99.90;;;;;;5041092;28;20519;-83
2023/02/24 03:12:21;;;;;;;16.10;2.50;;;5.00;98.00;;;;;;5039389;28;20557;-84
2023/02/24 03:14:52;;;;;;;10.33;2.27;;;4.90;99.90;;;;;;5040365;28;20916;-83
2023/02/24 03:17:22;;;;;;;8.50;3.00;;;4.90;99.90;;;;;;5041269;28;20484;-85
2023/02/24 03:19:55;;;;;;;7.77;2.50;;;4.80;99.90;;;;;;5043335;28;20524;-85
2023/02/24 03:22:27;;;;;;;10.10;3.30;;;4.70;99.90;;;;;;5027535;28;20460;-84
2023/02/24 03:24:55;;;;;;;12.27;2.27;;;4.70;99.90;;;;;;5025119;28;20447;-84
2023/02/24 03:27:27;;;;;;;11.93;3.67;;;4.60;99.90;;;;;;5040100;28;20958;-84
2023/02/24 03:30:00;;;;;;;11.47;2.67;;;4.60;99.90;;;;;;5028403;28;20459;-82
2023/02/24 03:32:31;;;;;;;11.83;3.47;;;4.70;99.90;;;;;;5043984;28;20471;-83
2023/02/24 03:35:04;;;;;;;9.00;2.60;;;4.80;99.90;;;;;;5043853;28;20483;-84
2023/02/24 03:37:32;;;;;;;11.67;2.63;;;4.80;99.90;;;;;;5045420;28;20834;-84
2023/02/24 03:40:10;;;;;;;10.07;3.07;;;4.90;99.90;;;;;;5044267;28;20457;-84
2023/02/24 03:42:39;;;;;;;11.60;2.63;;;5.00;99.90;;;;;;5023170;28;20452;-83
2023/02/24 03:45:09;;;;;;;10.27;2.70;;;5.10;99.90;;;;;;5032293;28;21048;-82
2023/02/24 03:47:36;;;;;;;10.57;2.97;;;5.10;99.90;;;;;;5033967;28;20496;-83
2023/02/24 03:50:12;;;;;;;16.83;3.53;;;5.20;99.90;;;;;;5024017;28;20543;-86
2023/02/24 03:52:45;;;;;;;16.33;3.30;;;5.20;99.90;;;;;;5023851;28;20560;-83
2023/02/24 03:55:26;;;;;;;13.73;4.23;;;5.30;99.90;;;;;;5029464;28;20487;-84
2023/02/24 03:58:09;;;;;;;9.93;3.87;;;5.20;99.90;;;;;;5049245;28;20478;-84
2023/02/24 04:00:40;;;;;;;12.37;4.17;;;5.30;99.90;;;;;;5048779;28;20446;-84
2023/02/24 04:03:25;;;;;;;14.93;3.77;;;5.30;99.90;;;;;;5049484;28;21103;-84
2023/02/24 04:06:05;;;;;;;22.60;5.50;;;5.20;99.90;;;;;;5049486;28;20486;-83
2023/02/24 04:08:39;;;;;;;13.67;4.07;;;5.10;75.70;;;;;;5043632;28;20454;-84
2023/02/24 04:11:13;;;;;;;18.90;4.57;;;5.00;94.10;;;;;;5028771;28;20457;-85
2023/02/24 04:13:45;;;;;;;13.67;4.43;;;5.00;90.80;;;;;;5029261;28;20523;-84
2023/02/24 04:16:17;;;;;;;14.73;4.63;;;4.90;99.90;;;;;;5029448;28;20522;-84
2023/02/24 04:18:48;;;;;;;11.27;4.40;;;4.90;99.90;;;;;;5029222;28;20547;-84
2023/02/24 04:21:18;;;;;;;12.13;4.00;;;4.90;99.90;;;;;;5028640;28;20970;-85
2023/02/24 04:23:48;;;;;;;9.50;4.40;;;4.80;99.90;;;;;;5040899;28;20479;-83
2023/02/24 04:26:18;;;;;;;14.27;4.67;;;4.80;99.90;;;;;;5048107;28;20551;-82
2023/02/24 04:28:47;;;;;;;22.30;5.83;;;4.80;99.90;;;;;;5034797;28;20534;-82
2023/02/24 04:31:17;;;;;;;13.67;4.50;;;4.80;99.90;;;;;;5047240;28;20476;-83
2023/02/24 04:33:49;;;;;;;17.77;4.50;;;4.90;99.90;;;;;;5047108;28;20454;-83
2023/02/24 04:36:17;;;;;;;9.20;4.07;;;4.90;99.90;;;;;;5048204;28;20492;-84
2023/02/24 04:38:46;;;;;;;13.73;6.07;;;4.90;99.90;;;;;;5036631;28;20526;-82
2023/02/24 04:41:17;;;;;;;14.23;5.80;;;5.00;99.90;;;;;;5028022;28;20452;-83
2023/02/24 04:43:44;;;;;;;11.00;3.90;;;5.10;99.90;;;;;;5028971;28;20539;-81
2023/02/24 04:46:12;;;;;;;10.80;4.37;;;5.10;99.90;;;;;;5025728;28;20467;-83
2023/02/24 04:48:39;;;;;;;14.17;3.47;;;5.20;82.20;;;;;;5025278;28;20458;-82
2023/02/24 04:51:06;;;;;;;11.87;4.63;;;5.20;60.70;;;;;;5028647;28;20458;-83
2023/02/24 04:53:36;;;;;;;16.33;4.30;;;5.20;26.10;;;;;;5045138;28;20530;-83
2023/02/24 04:56:07;;;;;;;12.37;6.37;;;5.20;18.60;;;;;;5058171;22;20490;-81
2023/02/24 04:58:36;;;;;;;12.20;4.63;;;5.20;17.60;;;;;;5046502;28;20872;-81
2023/02/24 05:01:09;;;;;;;19.67;5.30;;;5.20;17.60;;;;;;5036006;28;21204;-81
2023/02/24 05:03:36;;;;;;;10.70;5.03;;;5.30;1.00;;;;;;5043736;28;20444;-81
2023/02/24 05:06:05;;;;;;;12.17;5.20;;;5.30;1.00;;;;;;5037464;28;20463;-81
2023/02/24 05:08:33;;;;;;;14.00;6.13;;;5.30;1.00;;;;;;5027302;28;20445;-79
2023/02/24 05:11:02;;;;;;;13.40;5.40;;;5.30;1.00;;;;;;5020347;28;20465;-81
2023/02/24 05:13:30;;;;;;;20.70;5.97;;;5.20;1.00;;;;;;5022243;28;20536;-81
2023/02/24 05:15:59;;;;;;;14.30;5.90;;;5.20;1.00;;;;;;5025585;28;20577;-79
2023/02/24 05:18:30;;;;;;;16.33;5.47;;;5.20;1.00;;;;;;5028889;28;20477;-81
2023/02/24 05:23:44;;;;;;;14.03;5.53;;;5.30;1.00;;;;;;5030197;28;20461;-81
2023/02/24 05:26:15;;;;;;;17.33;6.37;;;5.30;1.00;;;;;;5029246;28;20478;-81
2023/02/24 05:28:45;;;;;;;11.63;5.17;;;5.30;1.00;;;;;;5029724;28;20451;-81
2023/02/24 05:31:14;;;;;;;16.70;5.67;;;5.30;1.00;;;;;;5028900;28;20519;-81
2023/02/24 05:33:42;;;;;;;13.40;5.40;;;5.30;1.00;;;;;;5030042;28;20462;-81
2023/02/24 05:36:13;;;;;;;14.70;5.13;;;5.20;1.00;;;;;;5029791;28;20610;-81
2023/02/24 05:38:42;;;;;;;14.50;6.47;;;5.30;1.00;;;;;;5030157;28;20451;-81
2023/02/24 05:41:15;;;;;;;17.00;5.53;;;5.20;1.00;;;;;;5029848;28;20472;-82
2023/02/24 05:43:46;;;;;;;25.67;6.30;;;5.20;1.00;;;;;;5029896;28;20437;-81
2023/02/24 05:46:14;;;;;;;9.00;4.17;;;5.20;1.00;;;;;;5030562;28;20473;-81
2023/02/24 05:48:41;;;;;;;12.40;4.63;;;5.30;1.00;;;;;;5030261;28;20451;-82
2023/02/24 05:51:10;;;;;;;13.97;4.13;;;5.30;1.00;;;;;;5030023;28;20539;-81
2023/02/24 05:53:40;;;;;;;12.43;4.40;;;5.30;1.00;;;;;;5030473;28;20492;-81
2023/02/24 05:56:08;;;;;;;13.07;4.53;;;5.30;1.00;;;;;;5030031;28;20484;-80
2023/02/24 05:58:38;;;;;;;10.30;4.47;;;5.30;1.00;;;;;;5031103;28;20457;-80
2023/02/24 06:01:14;;;;;;;14.43;5.63;;;5.40;1.00;;;;;;5030520;28;20480;-81
2023/02/24 06:03:45;;;;;;;13.23;4.77;;;5.30;1.00;;;;;;5024886;28;20472;-80
2023/02/24 06:06:12;;;;;;;15.50;5.80;;;5.30;1.00;;;;;;5029467;28;20990;-80
2023/02/24 06:08:48;;;;;;;15.90;5.47;;;5.40;1.00;;;;;;5028771;28;20515;-81
2023/02/24 06:11:17;;;;;;;19.80;4.20;;;5.30;1.00;;;;;;5027965;28;20447;-81
2023/02/24 06:13:46;;;;;;;6.07;3.27;;;5.30;1.00;;;;;;5029179;28;20489;-80
2023/02/24 06:16:14;;;;;;;12.63;4.60;;;5.30;1.00;;;;;;5027746;28;20491;-81
2023/02/24 06:18:41;;;;;;;7.03;3.37;;;5.30;1.00;;;;;;5021756;28;20464;-81
2023/02/24 06:21:08;;;;;;;22.03;4.83;;;5.20;1.00;;;;;;5026343;28;20532;-82
2023/02/24 06:23:34;;;;;;;12.80;5.17;;;5.30;1.00;;;;;;5025943;28;20451;-81
2023/02/24 06:26:02;;;;;;;9.17;3.80;;;5.30;1.00;;;;;;5026806;28;20550;-82
2023/02/24 06:28:32;;;;;;;16.20;5.67;;;5.30;1.00;;;;;;5022402;28;20463;-83
2023/02/24 06:31:03;;;;;;;8.23;4.13;;;5.30;1.00;;;;;;5024785;28;20532;-82
2023/02/24 06:33:33;;;;;;;11.30;4.38;;;5.40;1.00;;;;;;5022885;28;20454;-82
2023/02/24 06:36:03;;;;;;;12.43;4.80;;;5.40;1.00;;;;;;5024692;28;20238;-81
2023/02/24 06:38:29;;;;;;;9.93;4.10;;;5.30;1.00;;;;;;5025708;28;20451;-80
2023/02/24 06:40:57;;;;;;;11.20;4.67;;;5.30;1.00;;;;;;5025011;28;20443;-83
2023/02/24 06:43:24;;;;;;;8.60;5.00;;;5.20;1.00;;;;;;5025106;28;20919;-82
2023/02/24 06:45:53;;;;;;;10.70;3.80;;;5.20;1.00;;;;;;5030393;28;20502;-82
2023/02/24 06:48:21;;;;;;;10.73;3.53;;;5.30;1.00;;;;;;5020305;28;20506;-81
2023/02/24 06:50:50;;;;;;;12.27;4.97;;;5.20;1.00;;;;;;5023741;28;20509;-81
2023/02/24 06:53:17;;;;;;;10.50;3.20;;;5.20;1.00;;;;;;5027890;28;20465;-82
2023/02/24 06:55:45;;;;;;;10.40;2.77;;;5.30;1.00;;;;;;5026811;28;20461;-82
2023/02/24 06:58:16;;;;;;;18.67;4.47;;;5.30;1.00;;;;;;5026170;28;20488;-81
2023/02/24 07:00:55;;;;;;;9.13;3.10;;;5.20;1.00;;;;;;5020160;28;20527;-81
2023/02/24 07:03:37;;;;;;;9.17;2.53;;;5.20;1.00;;;;;;5025264;28;20805;-81
2023/02/24 07:06:19;;;;;;;11.70;2.70;;;5.30;1.00;;;;;;5026077;28;20453;-84
2023/02/24 07:08:46;;;;;;;7.27;2.40;;;5.20;1.00;;;;;;5020412;28;20466;-83
2023/02/24 07:11:16;;;;;;;10.77;3.13;;;5.20;1.00;;;;;;5024823;28;20464;-82
2023/02/24 07:13:43;;;;;;;15.37;3.10;;;5.20;99.90;;;;;;5027453;28;20452;-81
2023/02/24 07:16:10;;;;;;;12.30;3.50;;;5.20;99.90;;;;;;5027723;28;20472;-83
2023/02/24 07:18:40;;;;;;;10.57;3.50;;;5.20;99.90;;;;;;5029254;28;20505;-81
2023/02/24 07:21:10;;;;;;;9.10;2.93;;;5.30;99.90;;;;;;5029408;28;20523;-81
2023/02/24 07:23:38;;;;;;;9.43;3.70;;;5.40;99.90;;;;;;5028606;28;20840;-81
2023/02/24 07:26:10;;;;;;;13.83;4.87;;;5.40;99.90;;;;;;5029587;28;20480;-82
2023/02/24 07:28:39;;;;;;;10.47;2.80;;;5.50;99.90;;;;;;5029918;28;20536;-81
2023/02/24 07:31:07;;;;;;;9.30;3.17;;;5.50;99.90;;;;;;5028564;28;20559;-82
2023/02/24 07:33:35;;;;;;;10.30;2.97;;;5.60;99.90;;;;;;5027262;28;20466;-82
2023/02/24 07:36:07;;;;;;;7.93;3.20;;;5.70;99.90;;;;;;5029580;28;20845;-82
2023/02/24 07:38:35;;;;;;;15.17;3.23;;;5.60;99.90;;;;;;5029381;28;20468;-81
2023/02/24 07:41:02;;;;;;;10.13;3.33;;;5.60;99.90;;;;;;5025581;28;20664;-80
2023/02/24 07:43:29;;;;;;;10.30;3.53;;;5.50;99.90;;;;;;5029940;28;20534;-82
2023/02/24 07:45:56;;;;;;;11.67;3.53;;;5.60;99.90;;;;;;5030937;28;20459;-81
2023/02/24 07:48:24;;;;;;;7.57;2.80;;;5.60;99.90;;;;;;5030323;28;20444;-83
2023/02/24 07:50:51;;;;;;;7.23;2.50;;;5.50;99.90;;;;;;5028962;28;20498;-81
2023/02/24 07:53:19;;;;;;;12.90;3.70;;;5.60;1.00;;;;;;5029786;28;20460;-81
2023/02/24 07:55:46;;;;;;;9.27;2.87;;;5.60;1.00;;;;;;5030531;28;20528;-83
2023/02/24 07:58:13;;;;;;;10.80;2.50;;;5.70;99.90;;;;;;5028203;28;20489;-83
2023/02/24 08:00:58;;;;;;;9.77;3.33;;;5.80;1.00;;;;;;5028092;28;20444;-80
2023/02/24 08:03:26;;;;;;;8.90;2.67;;;5.80;1.00;;;;;;5022875;28;20929;-82
2023/02/24 08:05:58;;;;;;;8.10;3.17;;;5.80;99.90;;;;;;5026699;28;20557;-83
2023/02/24 08:08:27;;;;;;;12.77;3.13;;;5.70;99.90;;;;;;5028581;28;20446;-81
2023/02/24 08:11:02;;;;;;;9.80;2.43;;;5.80;99.90;;;;;;5027440;28;20519;-82
2023/02/24 08:13:36;;;;;;;6.40;1.83;;;5.80;1.00;;;;;;5025013;28;20547;-84
2023/02/24 08:16:05;;;;;;;5.50;2.17;;;5.80;99.90;;;;;;5029059;28;20470;-83
2023/02/24 08:18:36;;;;;;;12.60;2.90;;;5.80;99.90;;;;;;5027485;28;20556;-83
2023/02/24 08:21:03;;;;;;;10.60;1.90;;;5.80;99.90;;;;;;5026128;28;21178;-83
2023/02/24 08:23:33;;;;;;;6.83;1.80;;;5.90;99.90;;;;;;5021953;28;20451;-83
2023/02/24 08:26:03;;;;;;;11.43;2.03;;;5.90;1.00;;;;;;5023655;28;20503;-83
2023/02/24 08:28:30;;;;;;;3.70;2.27;;;5.90;31.60;;;;;;5022898;28;20448;-82
2023/02/24 08:30:57;;;;;;;17.93;2.80;;;6.00;1.00;;;;;;5027612;28;20459;-82
2023/02/24 08:33:28;;;;;;;8.40;2.63;;;6.10;31.70;;;;;;5027058;28;20452;-82
2023/02/24 08:35:59;;;;;;;11.73;2.47;;;6.10;31.80;;;;;;5026662;28;20494;-81
2023/02/24 08:38:38;;;;;;;7.57;2.43;;;6.00;10.80;;;;;;5027243;28;20492;-83
2023/02/24 08:41:12;;;;;;;12.23;4.03;;;6.10;1.00;;;;;;5021066;28;20462;-82
2023/02/24 08:43:41;;;;;;;8.70;2.67;;;6.00;1.00;;;;;;5020413;28;20487;-82
2023/02/24 08:46:17;;;;;;;7.40;2.30;;;5.80;1.00;;;;;;5026232;28;20510;-83
2023/02/24 08:48:46;;;;;;;12.67;2.60;;;5.90;31.80;;;;;;5023180;28;20451;-81
2023/02/24 08:51:16;;;;;;;4.43;2.10;;;5.80;1.00;;;;;;5020692;28;20464;-83
2023/02/24 08:53:45;;;;;;;10.03;2.30;;;5.90;99.90;;;;;;5024683;28;20453;-81
2023/02/24 08:56:22;;;;;;;8.97;2.40;;;5.90;99.90;;;;;;5023713;28;20496;-82
2023/02/24 08:58:55;;;;;;;8.40;2.67;;;5.80;99.90;;;;;;5022348;28;20536;-83
2023/02/24 09:01:25;;;;;;;6.90;2.70;;;5.90;99.90;;;;;;5022592;28;20469;-85
2023/02/24 09:03:54;;;;;;;11.77;3.07;;;5.80;99.90;;;;;;5024652;28;21132;-83
2023/02/24 09:06:34;;;;;;;8.20;2.37;;;5.90;99.90;;;;;;5019023;28;20467;-83
2023/02/24 09:09:21;;;;;;;14.70;2.93;;;5.90;1.00;;;;;;5023016;28;20847;-82
2023/02/24 09:11:54;;;;;;;3.20;1.67;;;5.90;99.90;;;;;;5022893;28;20461;-82
2023/02/24 09:14:22;;;;;;;8.20;2.03;;;6.10;99.90;;;;;;5019866;28;20468;-83
2023/02/24 09:17:01;;;;;;;11.17;2.70;;;6.20;99.90;;;;;;5022493;28;20491;-83
2023/02/24 09:22:30;;;;;;;6.63;2.10;;;6.50;99.90;;;;;;5021569;28;20499;-83
2023/02/24 09:25:16;;;;;;;12.50;2.67;;;6.60;1.00;;;;;;5022079;28;20574;-83
2023/02/24 09:27:46;;;;;;;13.10;3.10;;;6.60;99.90;;;;;;5022893;28;21246;-83
2023/02/24 09:30:34;;;;;;;8.60;3.00;;;6.50;1.00;;;;;;5024803;28;20945;-84
2023/02/24 09:33:05;;;;;;;11.50;3.93;;;6.50;1.00;;;;;;5024888;28;20472;-83
2023/02/24 09:35:35;;;;;;;14.30;3.60;;;6.50;1.00;;;;;;5033134;28;20507;-83
2023/02/24 09:38:04;;;;;;;11.07;3.13;;;6.30;99.90;;;;;;5033563;28;20464;-83
2023/02/24 09:40:39;;;;;;;11.67;2.90;;;6.40;1.00;;;;;;5030513;28;20471;-81
2023/02/24 09:43:16;;;;;;;11.43;3.97;;;6.30;1.00;;;;;;5019665;28;20506;-81
2023/02/24 09:46:13;;;;;;;8.83;3.00;;;6.20;99.90;;;;;;5020815;28;20529;-82
2023/02/24 09:48:47;;;;;;;8.27;3.10;;;6.30;99.90;;;;;;5017963;28;20446;-83
2023/02/24 09:51:21;;;;;;;11.53;2.73;;;6.30;99.90;;;;;;5018731;28;20493;-83
2023/02/24 09:53:52;;;;;;;11.30;3.33;;;6.30;1.00;;;;;;5019796;28;20453;-81
2023/02/24 09:56:35;;;;;;;11.83;3.60;;;6.50;99.90;;;;;;5021375;28;20491;-81
2023/02/24 09:59:11;;;;;;;10.70;2.93;;;6.50;99.90;;;;;;5022438;28;20488;-81
2023/02/24 10:01:51;;;;;;;7.90;2.77;;;6.60;99.90;;;;;;5023641;28;20456;-83
2023/02/24 10:04:39;;;;;;;11.47;3.03;;;6.40;1.00;;;;;;5018533;28;21005;-81
2023/02/24 10:07:14;;;;;;;12.53;3.30;;;6.40;1.00;;;;;;5013573;28;20499;-81
2023/02/24 10:09:43;;;;;;;23.33;2.90;;;6.40;99.90;;;;;;5019243;28;21032;-83
2023/02/24 10:12:17;;;;;;;6.53;2.77;;;6.20;1.00;;;;;;5018854;28;20998;-81
2023/02/24 10:14:52;;;;;;;16.53;3.87;;;6.20;99.90;;;;;;5019468;28;20570;-82
2023/02/24 10:17:24;;;;;;;14.13;3.83;;;6.10;1.00;;;;;;5022029;28;20492;-82
2023/02/24 10:19:58;;;;;;;6.77;2.50;;;6.00;99.90;;;;;;5022002;28;20888;-83
2023/02/24 10:22:33;;;;;;;13.33;3.37;;;6.10;99.90;;;;;;5022582;28;20826;-82
2023/02/24 10:25:10;;;;;;;11.53;2.70;;;6.10;1.00;;;;;;5022343;28;20451;-83
2023/02/24 10:27:56;;;;;;;8.40;2.83;;;6.00;99.90;;;;;;5021119;28;20473;-83
2023/02/24 10:30:39;;;;;;;3.37;2.20;;;5.90;99.90;;;;;;5020750;28;20488;-82
2023/02/24 10:33:18;;;;;;;7.60;2.93;;;5.60;99.90;;;;;;5022681;28;20491;-83
2023/02/24 10:35:44;;;;;;;11.83;2.30;;;5.60;1.00;;;;;;5023630;28;20473;-83
2023/02/24 10:38:12;;;;;;;7.10;2.10;;;5.50;99.90;;;;;;5022172;28;20574;-83
2023/02/24 10:40:51;;;;;;;7.77;2.50;;;5.50;99.90;;;;;;5019118;28;20452;-81
2023/02/24 10:43:28;;;;;;;15.43;3.77;;;5.40;99.90;;;;;;5019713;28;20470;-81
2023/02/24 10:46:05;;;;;;;7.80;2.63;;;5.30;1.00;;;;;;5021057;28;20481;-81
2023/02/24 10:48:37;;;;;;;9.30;3.40;;;5.20;1.00;;;;;;5022099;28;20516;-79
2023/02/24 10:51:17;;;;;;;12.40;3.03;;;5.20;1.00;;;;;;5023570;28;20449;-81
2023/02/24 10:53:52;;;;;;;9.30;2.83;;;5.20;1.00;;;;;;5026925;28;20467;-81
2023/02/24 10:56:40;;;;;;;18.00;3.67;;;5.30;1.00;;;;;;5022838;28;20561;-83
2023/02/24 10:59:39;;;;;;;12.23;2.70;;;5.30;1.00;;;;;;5033393;22;20510;-81
2023/02/24 11:02:28;;;;;;;6.37;2.73;;;5.30;1.00;;;;;;5012907;28;20549;-83
2023/02/24 11:05:15;;;;;;;7.93;2.80;;;5.20;1.00;;;;;;5013406;28;20455;-82
2023/02/24 11:07:52;;;;;;;11.10;3.37;;;5.10;1.00;;;;;;5012225;28;20458;-83
2023/02/24 11:10:25;;;;;;;15.03;3.47;;;5.00;1.00;;;;;;5009463;28;20457;-82
2023/02/24 11:18:31;;;;;;;10.30;4.33;;;4.80;17.40;;;;;;5013029;28;20455;-85
2023/02/24 11:21:01;;;;;;;12.80;3.63;;;4.80;40.70;;;;;;5015194;28;20454;-85
2023/02/24 11:23:32;;;;;;;8.10;3.27;;;4.80;66.00;;;;;;5006457;28;21051;-85
2023/02/24 11:26:03;;;;;;;9.17;3.70;;;5.00;95.40;;;;;;5011821;28;20900;-86
2023/02/24 11:28:50;;;;;;;11.57;3.40;;;5.00;54.20;;;;;;5013424;28;20472;-83
2023/02/24 11:31:31;;;;;;;11.70;3.53;;;4.90;20.40;;;;;;5021409;28;20782;-83
2023/02/24 11:34:07;;;;;;;8.37;3.50;;;4.80;61.20;;;;;;5014260;28;20456;-83
2023/02/24 11:36:44;;;;;;;9.77;3.90;;;4.70;99.90;;;;;;5026867;28;20597;-84
2023/02/24 11:39:31;;;;;;;14.23;4.73;;;4.80;99.90;;;;;;5033421;28;20484;-84
2023/02/24 11:42:02;;;;;;;14.17;5.00;;;4.80;99.90;;;;;;5018607;28;20477;-83
2023/02/24 11:44:33;;;;;;;13.07;4.23;;;4.60;99.90;;;;;;5013808;28;20463;-83
2023/02/24 11:47:06;;;;;;;10.10;4.43;;;4.50;99.90;;;;;;5021907;28;20823;-84
2023/02/24 11:49:41;;;;;;;13.90;4.93;;;4.40;99.90;;;;;;5023759;28;20443;-85
2023/02/24 11:52:17;;;;;;;9.63;4.87;;;4.40;99.90;;;;;;5019377;28;20442;-82
2023/02/24 11:54:49;;;;;;;12.77;4.77;;;4.40;99.90;;;;;;5023288;28;20445;-82
2023/02/24 11:57:21;;;;;;;13.47;5.80;;;4.40;99.90;;;;;;5025126;28;20502;-84
2023/02/24 11:59:58;;;;;;;9.73;4.80;;;4.50;99.90;;;;;;5020962;28;20453;-83
2023/02/24 12:02:34;;;;;;;9.63;5.17;;;4.50;99.90;;;;;;5028132;28;20424;-85
2023/02/24 12:05:11;;;;;;;17.73;5.50;;;4.40;99.90;;;;;;5013091;28;20514;-82
2023/02/24 12:07:41;;;;;;;19.03;5.10;;;4.40;99.90;;;;;;5020246;28;20478;-85
2023/02/24 12:10:17;;;;;;;11.37;4.43;;;4.40;99.90;;;;;;5013918;28;20447;-85
2023/02/24 12:12:52;;;;;;;12.20;5.20;;;4.50;99.90;;;;;;5017141;28;20499;-80
2023/02/24 12:15:24;;;;;;;18.67;5.93;;;4.60;99.90;;;;;;5015565;28;20444;-84
2023/02/24 12:18:00;;;;;;;8.67;4.87;;;4.60;99.90;;;;;;5021844;28;20486;-82
2023/02/24 12:20:34;;;;;;;18.60;5.90;;;4.70;99.90;;;;;;5016739;28;20513;-83
2023/02/24 12:23:10;;;;;;;16.03;5.50;;;4.60;99.90;;;;;;5018265;28;20508;-84
2023/02/24 12:25:52;;;;;;;16.43;5.73;;;4.60;99.90;;;;;;5013861;28;20495;-83
2023/02/24 12:28:28;;;;;;;15.57;5.57;;;4.60;99.90;;;;;;5013330;28;20465;-79
2023/02/24 12:31:07;;;;;;;12.53;6.33;;;4.60;99.90;;;;;;5017202;28;20450;-82
2023/02/24 12:33:51;;;;;;;8.83;5.50;;;4.50;99.90;;;;;;5017608;28;20473;-85
2023/02/24 12:36:33;;;;;;;14.60;7.50;;;4.50;99.90;;;;;;5036559;28;20469;-82
2023/02/24 12:39:11;;;;;;;12.93;6.03;;;4.50;99.90;;;;;;5020035;28;20486;-81
2023/02/24 12:41:50;;;;;;;15.10;7.80;;;4.40;99.90;;;;;;5021426;28;20510;-82
2023/02/24 12:44:29;;;;;;;15.27;6.37;;;4.40;99.90;;;;;;5019287;28;20446;-82
2023/02/24 12:47:04;;;;;;;15.43;6.93;;;4.50;99.90;;;;;;5015058;28;20448;-83
2023/02/24 12:49:50;;;;;;;9.50;5.60;;;4.50;99.90;;;;;;5013238;28;20446;-83
2023/02/24 12:52:27;;;;;;;13.13;6.53;;;4.50;99.90;;;;;;5019214;28;20933;-81
2023/02/24 12:55:06;;;;;;;9.93;7.10;;;4.40;99.90;;;;;;5019510;28;20420;-81
2023/02/24 12:57:40;;;;;;;14.80;6.63;;;4.40;99.90;;;;;;5016168;28;20565;-81
2023/02/24 13:00:14;;;;;;;13.50;7.23;;;4.40;99.90;;;;;;5021183;28;20436;-80
2023/02/24 13:02:53;;;;;;;17.50;9.97;;;4.40;99.90;;;;;;5018069;28;20777;-81
2023/02/24 13:05:24;;;;;;;14.10;8.90;;;4.40;99.90;;;;;;5020531;28;20433;-81
2023/02/24 13:08:18;;;;;;;18.20;9.10;;;4.40;99.90;;;;;;5020833;28;20489;-80
2023/02/24 13:10:49;;;;;;;15.73;7.90;;;4.40;99.90;;;;;;5015187;28;20464;-81
2023/02/24 13:13:23;;;;;;;18.07;8.30;;;4.40;99.90;;;;;;5018820;28;20444;-83
2023/02/24 13:15:52;;;;;;;20.23;8.73;;;4.30;99.90;;;;;;5017111;28;20445;-81
2023/02/24 13:18:27;;;;;;;15.03;7.60;;;4.30;99.90;;;;;;5018929;28;20516;-79
2023/02/24 13:21:07;;;;;;;16.23;8.27;;;4.30;99.90;;;;;;5012986;28;20456;-82
2023/02/24 13:23:36;;;;;;;23.53;8.83;;;4.40;99.90;;;;;;5014725;28;20548;-82
2023/02/24 13:26:03;;;;;;;14.87;8.43;;;4.30;99.90;;;;;;5019139;28;20458;-82
2023/02/24 13:28:39;;;;;;;18.23;8.77;;;4.40;99.90;;;;;;5023845;28;20521;-82
2023/02/24 13:31:08;;;;;;;19.70;7.33;;;4.40;99.90;;;;;;5031348;28;20465;-84
2023/02/24 13:33:51;;;;;;;10.90;8.00;;;4.40;99.90;;;;;;5042881;28;20530;-84